createdAt,value
2023-01-10T00:00:37.483Z,63.28
2023-01-10T00:03:09.198Z,51.90
2023-01-10T00:05:37.427Z,56.05
2023-01-10T00:08:05.478Z,56.85
2023-01-10T00:10:33.380Z,54.88
2023-01-10T00:13:19.006Z,48.70
2023-01-10T00:15:46.448Z,48.58
2023-01-10T00:18:13.220Z,49.15
2023-01-10T00:20:40.011Z,49.88
2023-01-10T00:23:06.911Z,50.22
2023-01-10T00:25:35.976Z,43.53
2023-01-10T00:28:19.880Z,50.00
2023-01-10T00:31:01.453Z,48.28
2023-01-10T00:33:31.972Z,45.27
2023-01-10T00:36:00.105Z,44.88
2023-01-10T00:38:27.370Z,49.80
2023-01-10T00:40:54.214Z,42.28
2023-01-10T00:43:39.364Z,45.22
2023-01-10T00:46:06.141Z,36.13
2023-01-10T00:48:32.784Z,37.53
2023-01-10T00:50:59.456Z,43.72
2023-01-10T00:53:26.131Z,56.30
2023-01-10T00:55:54.305Z,43.88
2023-01-10T00:58:21.651Z,43.38
2023-01-10T01:00:49.954Z,49.50
2023-01-10T01:03:18.762Z,48.47
2023-01-10T01:05:46.907Z,52.85
2023-01-10T01:08:15.319Z,46.47
2023-01-10T01:10:42.082Z,42.03
2023-01-10T01:13:12.505Z,46.10
2023-01-10T01:15:39.351Z,45.53
2023-01-10T01:18:06.706Z,51.85
2023-01-10T01:20:33.625Z,45.72
2023-01-10T01:23:01.120Z,45.33
2023-01-10T01:25:29.957Z,47.05
2023-01-10T01:27:56.688Z,44.38
2023-01-10T01:30:23.418Z,54.05
2023-01-10T01:32:50.149Z,49.35
2023-01-10T01:35:17.497Z,49.97
2023-01-10T01:37:44.606Z,49.97
2023-01-10T01:40:14.747Z,51.20
2023-01-10T01:42:41.481Z,49.28
2023-01-10T01:45:11.254Z,58.80
2023-01-10T01:47:45.138Z,43.88
2023-01-10T01:50:19.887Z,49.33
2023-01-10T01:52:48.805Z,55.55
2023-01-10T01:55:15.803Z,57.08
2023-01-10T01:57:46.014Z,48.97
2023-01-10T02:00:13.393Z,51.15
2023-01-10T02:03:01.725Z,41.88
2023-01-10T02:05:31.376Z,49.13
2023-01-10T02:08:02.242Z,52.58
2023-01-10T02:10:40.886Z,48.75
2023-01-10T02:13:11.439Z,63.55
2023-01-10T02:15:38.014Z,53.72
2023-01-10T02:18:04.866Z,50.13
2023-01-10T02:20:44.966Z,59.10
2023-01-10T02:23:36.834Z,48.42
2023-01-10T02:26:26.998Z,51.28
2023-01-10T02:29:11.889Z,55.90
2023-01-10T02:32:16.169Z,47.92
2023-01-10T02:35:28.038Z,51.25
2023-01-10T02:38:32.504Z,52.07
2023-01-10T02:41:08.119Z,47.05
2023-01-10T02:43:40.587Z,57.50
2023-01-10T02:46:17.051Z,52.72
2023-01-10T02:48:43.918Z,51.20
2023-01-10T02:51:19.233Z,49.60
2023-01-10T02:53:54.254Z,44.50
2023-01-10T02:56:30.161Z,55.60
2023-01-10T02:59:15.385Z,55.28
2023-01-10T03:02:11.131Z,53.13
2023-01-10T03:04:54.541Z,56.63
2023-01-10T03:07:40.245Z,49.78
2023-01-10T03:10:25.284Z,40.95
2023-01-10T03:13:04.988Z,56.50
2023-01-10T03:15:38.340Z,50.40
2023-01-10T03:18:12.725Z,43.00
2023-01-10T03:20:44.677Z,54.75
2023-01-10T03:23:13.535Z,37.65
2023-01-10T03:25:42.062Z,41.50
2023-01-10T03:28:16.024Z,44.10
2023-01-10T03:31:11.522Z,32.20
2023-01-10T03:33:38.951Z,27.60
2023-01-10T03:36:09.151Z,36.45
2023-01-10T03:38:54.143Z,25.50
2023-01-10T03:41:42.499Z,28.35
2023-01-10T03:44:45.664Z,24.98
2023-01-10T03:47:34.152Z,22.67
2023-01-10T03:50:06.577Z,24.13
2023-01-10T03:52:35.657Z,26.55
2023-01-10T03:55:03.426Z,18.63
2023-01-10T03:57:30.092Z,18.48
2023-01-10T03:59:59.002Z,15.80
2023-01-10T04:02:28.112Z,19.45
2023-01-10T04:04:54.966Z,23.30
2023-01-10T04:07:21.752Z,22.75
2023-01-10T04:09:48.381Z,17.30
2023-01-10T04:12:15.801Z,20.20
2023-01-10T04:14:42.609Z,13.88
2023-01-10T04:17:09.298Z,16.20
2023-01-10T04:19:35.866Z,19.23
2023-01-10T04:22:02.491Z,14.50
2023-01-10T04:24:29.105Z,20.38
2023-01-10T04:26:55.822Z,24.23
2023-01-10T04:29:22.497Z,19.52
2023-01-10T04:31:50.085Z,16.88
2023-01-10T04:34:16.842Z,18.17
2023-01-10T04:36:43.452Z,23.38
2023-01-10T04:39:10.107Z,21.60
2023-01-10T04:42:08.642Z,16.48
2023-01-10T04:44:35.391Z,13.95
2023-01-10T04:47:02.025Z,19.95
2023-01-10T04:49:28.765Z,17.23
2023-01-10T04:51:55.493Z,23.52
2023-01-10T04:54:23.104Z,19.65
2023-01-10T04:56:50.120Z,21.02
2023-01-10T04:59:16.815Z,18.83
2023-01-10T05:01:43.522Z,18.70
2023-01-10T05:04:10.459Z,17.90
2023-01-10T05:06:40.000Z,22.30
2023-01-10T05:09:08.049Z,14.90
2023-01-10T05:11:34.724Z,13.70
2023-01-10T05:14:01.387Z,12.55
2023-01-10T05:16:28.850Z,16.08
2023-01-10T05:18:55.613Z,17.55
2023-01-10T05:21:22.260Z,15.60
2023-01-10T05:23:49.087Z,22.20
2023-01-10T05:26:21.486Z,14.65
2023-01-10T05:28:48.514Z,10.43
2023-01-10T05:31:18.578Z,8.68
2023-01-10T05:33:52.330Z,12.80
2023-01-10T05:36:19.618Z,10.95
2023-01-10T05:38:46.517Z,11.48
2023-01-10T05:41:13.117Z,13.27
2023-01-10T05:43:39.783Z,17.10
2023-01-10T05:46:06.601Z,26.40
2023-01-10T05:48:33.244Z,12.02
2023-01-10T05:51:00.135Z,49.85
2023-01-10T05:53:26.710Z,43.28
2023-01-10T05:55:55.435Z,12.93
2023-01-10T05:58:22.212Z,41.95
2023-01-10T06:00:49.087Z,32.50
2023-01-10T06:03:16.130Z,13.90
2023-01-10T06:05:43.096Z,30.80
2023-01-10T06:08:09.635Z,10.88
2023-01-10T06:10:36.492Z,10.18
2023-01-10T06:13:05.014Z,12.70
2023-01-10T06:15:35.304Z,8.32
2023-01-10T06:18:02.225Z,11.73
2023-01-10T06:20:28.969Z,12.45
2023-01-10T06:22:55.641Z,25.35
2023-01-10T06:25:22.349Z,27.55
2023-01-10T06:27:49.034Z,16.63
2023-01-10T06:30:16.041Z,14.07
2023-01-10T06:32:42.727Z,11.80
2023-01-10T06:35:10.318Z,12.93
2023-01-10T06:37:36.984Z,12.15
2023-01-10T06:40:04.568Z,16.42
2023-01-10T06:42:31.302Z,15.60
2023-01-10T06:44:57.904Z,8.68
2023-01-10T06:47:24.553Z,11.23
2023-01-10T06:49:51.180Z,14.27
2023-01-10T06:52:17.818Z,10.15
2023-01-10T06:54:44.718Z,12.98
2023-01-10T06:57:11.373Z,11.55
2023-01-10T06:59:37.894Z,11.90
2023-01-10T07:02:10.195Z,16.00
2023-01-10T07:07:03.644Z,10.05
2023-01-10T07:09:30.432Z,12.73
2023-01-10T07:11:57.030Z,14.80
2023-01-10T07:14:23.796Z,8.93
2023-01-10T07:16:50.419Z,12.63
2023-01-10T07:19:18.257Z,12.68
2023-01-10T07:21:44.834Z,13.95
2023-01-10T07:24:11.677Z,14.57
2023-01-10T07:26:38.462Z,14.98
2023-01-10T07:29:05.402Z,12.43
2023-01-10T07:31:31.994Z,13.32
2023-01-10T07:33:58.688Z,17.00
2023-01-10T07:36:25.338Z,13.20
2023-01-10T07:38:52.017Z,16.52
2023-01-10T07:41:18.639Z,13.48
2023-01-10T07:43:45.429Z,19.67
2023-01-10T07:46:12.482Z,11.80
2023-01-10T07:48:41.976Z,11.18
2023-01-10T07:51:09.543Z,13.10
2023-01-10T07:53:36.270Z,14.38
2023-01-10T07:56:05.037Z,16.73
2023-01-10T07:58:32.985Z,18.23
2023-01-10T08:01:00.693Z,13.10
2023-01-10T08:03:29.896Z,13.48
2023-01-10T08:06:05.205Z,13.07
2023-01-10T08:08:33.661Z,14.05
2023-01-10T08:11:02.487Z,11.23
2023-01-10T08:13:30.356Z,14.65
2023-01-10T08:15:57.745Z,14.95
2023-01-10T08:18:26.002Z,16.65
2023-01-10T08:20:53.774Z,10.63
2023-01-10T08:25:34.265Z,13.88
2023-01-10T08:28:01.091Z,13.88
2023-01-10T08:30:27.646Z,13.70
2023-01-10T08:32:54.343Z,9.73
2023-01-10T08:35:20.875Z,12.05
2023-01-10T08:37:47.773Z,9.32
2023-01-10T08:40:14.490Z,13.25
2023-01-10T08:42:41.193Z,17.85
2023-01-10T08:45:08.471Z,18.45
2023-01-10T08:47:35.485Z,14.05
2023-01-10T08:50:02.759Z,10.60
2023-01-10T08:52:29.407Z,17.55
2023-01-10T08:54:56.101Z,18.50
2023-01-10T08:57:22.785Z,24.08
2023-01-10T08:59:49.334Z,19.33
2023-01-10T09:02:16.093Z,29.70
2023-01-10T09:04:42.753Z,16.50
2023-01-10T09:07:12.178Z,23.17
2023-01-10T09:09:38.727Z,65.30
2023-01-10T09:12:25.315Z,42.85
2023-01-10T09:14:51.926Z,20.70
2023-01-10T09:17:18.522Z,21.60
2023-01-10T09:19:45.189Z,37.97
2023-01-10T09:22:11.816Z,23.73
2023-01-10T09:24:39.231Z,23.35
2023-01-10T09:27:06.003Z,19.02
2023-01-10T09:29:32.622Z,11.18
2023-01-10T09:31:59.194Z,18.77
2023-01-10T09:34:26.465Z,14.60
2023-01-10T09:36:53.879Z,19.75
2023-01-10T09:39:21.598Z,20.40
2023-01-10T09:42:28.236Z,15.02
2023-01-10T09:45:18.937Z,20.33
2023-01-10T09:48:05.690Z,21.77
2023-01-10T09:50:49.155Z,24.60
2023-01-10T09:53:27.644Z,21.65
2023-01-10T09:55:57.444Z,13.48
2023-01-10T09:58:27.689Z,19.65
2023-01-10T10:00:58.507Z,16.08
2023-01-10T10:03:42.578Z,13.80
2023-01-10T10:06:13.922Z,15.18
2023-01-10T10:08:43.292Z,19.07
2023-01-10T10:11:31.247Z,15.85
2023-01-10T10:14:06.923Z,15.30
2023-01-10T10:16:48.758Z,18.02
2023-01-10T10:19:24.395Z,15.23
2023-01-10T10:22:02.741Z,11.07
2023-01-10T10:24:53.710Z,11.10
2023-01-10T10:27:24.882Z,10.82
2023-01-10T10:30:08.813Z,8.05
2023-01-10T10:33:13.918Z,13.13
2023-01-10T10:35:51.860Z,8.95
2023-01-10T10:38:42.454Z,8.10
2023-01-10T10:41:25.393Z,12.40
2023-01-10T10:43:54.435Z,12.93
2023-01-10T10:46:22.141Z,8.40
2023-01-10T10:49:04.500Z,8.13
2023-01-10T10:51:52.597Z,9.45
2023-01-10T10:54:19.661Z,4.65
2023-01-10T10:56:47.278Z,7.45
2023-01-10T10:59:18.557Z,9.68
2023-01-10T11:01:51.883Z,3.70
2023-01-10T11:04:23.797Z,5.10
2023-01-10T11:06:50.526Z,5.80
2023-01-10T11:09:26.782Z,5.68
2023-01-10T11:11:56.801Z,5.38
2023-01-10T11:14:51.443Z,6.18
2023-01-10T11:17:26.886Z,6.60
2023-01-10T11:20:00.829Z,5.10
2023-01-10T11:24:55.373Z,10.30
2023-01-10T11:27:29.891Z,6.22
2023-01-10T11:30:03.653Z,6.88
2023-01-10T11:32:48.081Z,5.10
2023-01-10T11:35:32.474Z,6.93
2023-01-10T11:38:15.093Z,7.53
2023-01-10T11:40:54.365Z,7.07
2023-01-10T11:43:28.251Z,12.30
2023-01-10T11:45:57.704Z,8.30
2023-01-10T11:48:53.191Z,7.03
2023-01-10T11:51:28.828Z,8.30
2023-01-10T11:53:59.827Z,11.05
2023-01-10T11:56:31.270Z,11.45
2023-01-10T11:59:06.907Z,17.17
2023-01-10T12:01:47.031Z,14.90
2023-01-10T12:04:16.217Z,13.00
2023-01-10T12:06:46.119Z,10.85
2023-01-10T12:09:34.854Z,10.93
2023-01-10T12:12:03.974Z,16.60
2023-01-10T12:14:30.834Z,15.65
2023-01-10T12:17:03.288Z,13.00
2023-01-10T12:19:29.921Z,17.98
2023-01-10T12:22:02.470Z,15.48
2023-01-10T12:24:35.839Z,18.55
2023-01-10T12:27:03.779Z,16.45
2023-01-10T12:29:40.090Z,14.80
2023-01-10T12:32:17.068Z,16.80
2023-01-10T12:34:49.786Z,12.48
2023-01-10T12:37:25.621Z,19.60
2023-01-10T12:39:59.813Z,22.30
2023-01-10T12:43:20.056Z,28.00
2023-01-10T12:46:09.719Z,20.58
2023-01-10T12:48:50.142Z,24.02
2023-01-10T12:51:21.668Z,23.10
2023-01-10T12:53:57.605Z,23.02
2023-01-10T12:56:27.627Z,18.38
2023-01-10T12:58:59.992Z,20.20
2023-01-10T13:01:40.664Z,22.25
2023-01-10T13:04:12.885Z,28.75
2023-01-10T13:06:42.699Z,24.80
2023-01-10T13:09:17.202Z,27.33
2023-01-10T13:12:17.221Z,25.85
2023-01-10T13:15:02.681Z,28.45
2023-01-10T13:17:38.041Z,30.40
2023-01-10T13:20:16.881Z,30.40
2023-01-10T13:22:48.933Z,29.15
2023-01-10T13:25:28.917Z,32.92
2023-01-10T13:28:04.806Z,31.88
2023-01-10T13:30:32.699Z,42.88
2023-01-10T13:33:19.676Z,40.28
2023-01-10T13:35:48.944Z,34.53
2023-01-10T13:38:53.959Z,35.80
2023-01-10T13:41:40.029Z,41.47
2023-01-10T13:44:09.966Z,36.05
2023-01-10T13:46:39.666Z,33.33
2023-01-10T13:49:12.108Z,26.73
2023-01-10T13:51:59.184Z,31.45
2023-01-10T13:54:27.654Z,26.73
2023-01-10T13:59:52.544Z,34.20
2023-01-10T14:02:31.638Z,29.55
2023-01-10T14:05:17.668Z,26.88
2023-01-10T14:07:47.550Z,28.27
2023-01-10T14:10:24.473Z,32.60
2023-01-10T14:12:57.174Z,28.15
2023-01-10T14:15:36.898Z,30.80
2023-01-10T14:18:31.764Z,35.92
2023-01-10T14:21:01.981Z,36.72
2023-01-10T14:23:35.765Z,38.38
2023-01-10T14:26:03.208Z,33.28
2023-01-10T14:28:33.300Z,38.22
2023-01-10T14:31:22.672Z,35.58
2023-01-10T14:33:50.228Z,30.77
2023-01-10T14:36:29.584Z,34.78
2023-01-10T14:39:00.720Z,84.53
2023-01-10T14:41:45.487Z,72.25
2023-01-10T14:44:31.388Z,50.47
2023-01-10T14:47:04.517Z,33.10
2023-01-10T14:49:35.911Z,44.45
2023-01-10T14:52:22.651Z,55.17
2023-01-10T14:55:16.397Z,59.53
2023-01-10T14:57:56.335Z,60.00
2023-01-10T15:00:36.783Z,25.38
2023-01-10T15:03:04.436Z,27.95
2023-01-10T15:05:36.460Z,40.97
2023-01-10T15:08:23.146Z,38.97
2023-01-10T15:10:52.904Z,31.05
2023-01-10T15:13:23.980Z,34.88
2023-01-10T15:15:51.630Z,36.55
2023-01-10T15:18:43.242Z,35.90
2023-01-10T15:21:13.042Z,39.25
2023-01-10T15:23:42.510Z,36.67
2023-01-10T15:26:16.974Z,35.67
2023-01-10T15:28:49.316Z,40.63
2023-01-10T15:31:19.308Z,43.83
2023-01-10T15:33:56.321Z,58.28
2023-01-10T15:36:27.385Z,46.95
2023-01-10T15:38:54.708Z,43.25
2023-01-10T15:41:23.582Z,43.80
2023-01-10T15:43:52.141Z,49.38
2023-01-10T15:46:24.634Z,41.70
2023-01-10T15:49:01.319Z,43.95
2023-01-10T15:51:29.422Z,38.85
2023-01-10T15:54:26.408Z,37.10
2023-01-10T15:57:21.989Z,61.15
2023-01-10T15:59:53.323Z,38.75
2023-01-10T16:02:32.819Z,37.87
2023-01-10T16:05:09.055Z,44.20
2023-01-10T16:07:43.387Z,36.33
2023-01-10T16:10:27.224Z,38.13
2023-01-10T16:13:28.619Z,35.00
2023-01-10T16:15:56.359Z,37.60
2023-01-10T16:18:23.322Z,34.97
2023-01-10T16:20:56.340Z,33.47
2023-01-10T16:23:30.502Z,31.60
2023-01-10T16:25:59.941Z,33.50
2023-01-10T16:28:30.754Z,33.15
2023-01-10T16:30:57.374Z,29.30
2023-01-10T16:33:27.702Z,31.65
2023-01-10T16:35:59.502Z,35.40
2023-01-10T16:38:28.253Z,30.92
2023-01-10T16:40:59.835Z,32.50
2023-01-10T16:43:29.095Z,30.77
2023-01-10T16:46:00.809Z,33.13
2023-01-10T16:48:29.413Z,33.65
2023-01-10T16:51:05.636Z,28.67
2023-01-10T16:53:32.294Z,30.55
2023-01-10T16:55:58.875Z,27.15
2023-01-10T16:58:25.479Z,32.25
2023-01-10T17:00:52.829Z,37.53
2023-01-10T17:03:27.451Z,28.95
2023-01-10T17:05:54.122Z,35.67
2023-01-10T17:08:27.757Z,29.60
2023-01-10T17:10:59.093Z,32.65
2023-01-10T17:13:36.047Z,35.57
2023-01-10T17:16:03.067Z,36.15
2023-01-10T17:20:49.366Z,28.70
2023-01-10T17:23:16.142Z,35.70
2023-01-10T17:25:42.791Z,37.05
2023-01-10T17:30:42.788Z,33.70
2023-01-10T17:33:10.885Z,33.03
2023-01-10T17:35:41.317Z,34.00
2023-01-10T17:38:13.163Z,32.80
2023-01-10T17:40:41.633Z,36.22
2023-01-10T17:43:09.205Z,36.75
2023-01-10T17:45:39.688Z,34.58
2023-01-10T17:48:07.078Z,32.97
2023-01-10T17:50:33.831Z,32.22
2023-01-10T17:53:00.516Z,37.80
2023-01-10T17:55:27.129Z,41.35
2023-01-10T17:57:53.860Z,38.80
2023-01-10T18:00:20.698Z,47.22
2023-01-10T18:02:48.985Z,43.92
2023-01-10T18:05:15.709Z,39.95
2023-01-10T18:07:42.397Z,48.03
2023-01-10T18:10:09.611Z,47.08
2023-01-10T18:12:36.362Z,51.30
2023-01-10T18:15:04.718Z,49.45
2023-01-10T18:17:31.722Z,44.50
2023-01-10T18:19:58.288Z,52.20
2023-01-10T18:22:45.737Z,44.00
2023-01-10T18:25:12.383Z,51.42
2023-01-10T18:27:38.981Z,54.10
2023-01-10T18:30:06.422Z,56.30
2023-01-10T18:32:33.076Z,52.22
2023-01-10T18:34:59.995Z,58.17
2023-01-10T18:37:26.858Z,61.13
2023-01-10T18:39:53.568Z,61.67
2023-01-10T18:42:20.158Z,55.03
2023-01-10T18:44:46.891Z,75.00
2023-01-10T18:47:13.530Z,60.33
2023-01-10T18:49:41.011Z,69.85
2023-01-10T18:52:07.637Z,65.22
2023-01-10T18:54:34.410Z,68.13
2023-01-10T18:57:01.035Z,72.20
2023-01-10T18:59:30.602Z,64.25
2023-01-10T19:01:57.122Z,66.40
2023-01-10T19:04:23.883Z,71.30
2023-01-10T19:06:51.498Z,68.43
2023-01-10T19:09:19.413Z,67.25
2023-01-10T19:11:46.001Z,72.63
2023-01-10T19:14:12.777Z,66.03
2023-01-10T19:16:39.427Z,66.78
2023-01-10T19:19:09.319Z,65.15
2023-01-10T19:21:39.021Z,65.50
2023-01-10T19:24:08.531Z,68.15
2023-01-10T19:26:35.311Z,70.13
2023-01-10T19:29:07.911Z,65.25
2023-01-10T19:31:34.566Z,70.88
2023-01-10T19:34:01.431Z,66.63
2023-01-10T19:36:29.220Z,66.47
2023-01-10T19:38:58.493Z,67.80
2023-01-10T19:41:27.350Z,61.97
2023-01-10T19:43:58.536Z,70.68
2023-01-10T19:46:26.658Z,67.97
2023-01-10T19:48:56.024Z,68.60
2023-01-10T19:51:22.819Z,71.85
2023-01-10T19:53:49.947Z,71.85
2023-01-10T19:56:21.670Z,66.95
2023-01-10T19:58:49.569Z,69.40
2023-01-10T20:01:22.688Z,64.85
2023-01-10T20:03:49.509Z,64.43
2023-01-10T20:06:19.949Z,68.35
2023-01-10T20:08:47.479Z,69.03
2023-01-10T20:11:15.519Z,66.93
2023-01-10T20:13:44.965Z,65.55
2023-01-10T20:16:15.500Z,75.68
2023-01-10T20:18:43.407Z,61.78
2023-01-10T20:21:12.341Z,66.70
2023-01-10T20:23:40.627Z,65.03
2023-01-10T20:26:09.633Z,69.32
2023-01-10T20:28:36.643Z,64.70
2023-01-10T20:31:03.642Z,66.82
2023-01-10T20:33:32.365Z,67.65
2023-01-10T20:36:06.388Z,66.10
2023-01-10T20:38:34.946Z,65.03
2023-01-10T20:41:17.434Z,66.80
2023-01-10T20:43:47.490Z,61.60
2023-01-10T20:46:20.073Z,67.32
2023-01-10T20:48:47.968Z,69.35
2023-01-10T20:51:18.406Z,65.72
2023-01-10T20:53:49.838Z,68.28
2023-01-10T20:56:22.848Z,62.90
2023-01-10T20:58:50.906Z,67.75
2023-01-10T21:01:33.142Z,65.72
2023-01-10T21:04:01.133Z,64.07
2023-01-10T21:06:27.969Z,63.30
2023-01-10T21:08:54.787Z,63.50
2023-01-10T21:11:21.707Z,56.35
2023-01-10T21:13:48.583Z,60.30
2023-01-10T21:16:18.234Z,62.65
2023-01-10T21:18:46.571Z,60.08
2023-01-10T21:21:15.631Z,73.00
2023-01-10T21:23:42.803Z,71.20
2023-01-10T21:26:12.310Z,59.22
2023-01-10T21:28:46.661Z,64.78
2023-01-10T21:31:19.289Z,63.30
2023-01-10T21:33:46.055Z,63.17
2023-01-10T21:38:27.334Z,56.40
2023-01-10T21:40:55.144Z,59.00
2023-01-10T21:43:22.620Z,53.42
2023-01-10T21:45:49.712Z,54.67
2023-01-10T21:48:16.321Z,54.75
2023-01-10T21:50:47.490Z,52.72
2023-01-10T21:53:14.219Z,42.35
2023-01-10T21:58:06.585Z,48.50
2023-01-10T22:00:33.306Z,49.00
2023-01-10T22:02:59.925Z,54.00
2023-01-10T22:05:26.705Z,47.80
2023-01-10T22:07:55.302Z,51.47
2023-01-10T22:10:22.244Z,51.22
2023-01-10T22:12:51.440Z,50.15
2023-01-10T22:15:18.141Z,52.05
2023-01-10T22:17:44.856Z,42.92
2023-01-10T22:20:12.499Z,49.45
2023-01-10T22:22:39.159Z,51.47
2023-01-10T22:25:06.395Z,39.35
2023-01-10T22:27:32.968Z,51.20
2023-01-10T22:29:59.712Z,39.83
2023-01-10T22:32:26.373Z,41.58
2023-01-10T22:34:53.139Z,40.03
2023-01-10T22:37:19.768Z,41.05
2023-01-10T22:39:48.413Z,42.83
2023-01-10T22:42:15.239Z,39.80
2023-01-10T22:44:42.043Z,37.20
2023-01-10T22:47:08.960Z,40.22
2023-01-10T22:49:35.745Z,39.70
2023-01-10T22:52:02.451Z,41.47
2023-01-10T22:54:29.050Z,37.17
2023-01-10T22:56:55.683Z,42.67
2023-01-10T23:02:06.633Z,43.90
2023-01-10T23:04:33.274Z,35.78
2023-01-10T23:07:00.015Z,49.38
2023-01-10T23:09:26.612Z,42.42
2023-01-10T23:11:53.185Z,39.70
2023-01-10T23:14:19.705Z,45.85
2023-01-10T23:16:46.397Z,97.22
2023-01-10T23:19:13.122Z,48.65
2023-01-10T23:21:39.884Z,42.35
2023-01-10T23:24:06.882Z,46.38
2023-01-10T23:26:33.547Z,42.33
2023-01-10T23:29:00.132Z,47.25
2023-01-10T23:31:29.454Z,49.63
2023-01-10T23:33:56.568Z,46.00
2023-01-10T23:36:23.853Z,47.63
2023-01-10T23:38:50.754Z,42.88
2023-01-10T23:41:21.202Z,43.10
2023-01-10T23:43:49.623Z,48.25
2023-01-10T23:46:16.555Z,45.30
2023-01-10T23:48:46.053Z,40.05
2023-01-10T23:51:13.673Z,131.35
2023-01-10T23:53:40.943Z,59.17
2023-01-10T23:56:13.335Z,39.58
2023-01-10T23:58:40.660Z,43.90
